Latest Weather Observations for Mount Gellibrand

IDV60801

Issued at 3:32 pm EST Saturday 2 July 2022 (issued every 10 minutes, with the page automatically refreshed every 10 minutes)

About weather observations | Map of weather stations | Latest weather observations for VIC | Other Formats
Station Details ID: 090035 Name: MOUNT GELLIBRAND Lat: -38.23 Lon: 143.79 Height: 261.0 m
Data from the previous 72 hours. | See also: Recent months at Mount Gellibrand
Date/Time
EST
Temp
°C
App
Temp
°C
Dew
Point
°C
Rel
Hum
%
Delta-T
°C
Wind Press
QNH
hPa
Press
MSL
hPa
Rain since
9am
mm
Dir  Spd
km/h
Gust
km/h
Spd
kts
Gust
kts
02/03:30pm 9.3 6.4 8.1 92 0.6 ESE 13 17 7 9 1029.1 1029.6 0.0
02/03:00pm 9.8 6.8 7.7 87 1.0 ESE 13 20 7 11 1029.0 1029.5 0.0
02/02:30pm 10.2 7.9 7.6 84 1.3 E 9 15 5 8 1029.0 1029.5 0.0
02/02:00pm 9.4 7.1 9.1 98 0.1 ESE 11 15 6 8 1029.3 1029.8 0.0
02/01:30pm 9.5 7.4 8.1 91 0.7 S 9 11 5 6 1029.5 1030.0 0.0
02/01:00pm 9.8 7.6 9.3 97 0.2 SSE 11 17 6 9 1029.8 1030.3 0.0
02/12:30pm 9.5 6.9 9.2 98 0.2 SSE 13 17 7 9 1030.2 1030.7 0.0
02/12:00pm 9.6 6.9 9.0 96 0.3 SSE 13 19 7 10 1030.5 1031.0 0.0
02/11:30am 8.9 6.6 8.9 100 0.0 S 11 17 6 9 1030.8 1031.3 0.0
02/11:00am 8.5 6.5 8.5 100 0.0 S 9 11 5 6 1031.1 1031.6 0.0
02/10:30am 7.4 5.5 7.4 100 0.0 SSW 7 11 4 6 1031.1 1031.6 0.0
02/10:00am 6.9 4.1 6.9 100 0.0 SSW 11 13 6 7 1031.0 1031.5 0.0
02/09:30am 6.3 3.0 6.3 100 0.0 SSW 13 15 7 8 1030.8 1031.3 0.0
02/09:00am 5.7 1.5 5.7 100 0.0 SSW 17 19 9 10 1030.7 1031.2 0.0
02/08:30am 4.7 0.3 4.7 100 0.0 SSW 17 20 9 11 1030.6 1031.1 0.0
02/08:00am 4.4 -0.1 4.4 100 0.0 SSW 17 19 9 10 1030.5 1031.0 0.0
02/07:30am 4.5 0.4 4.5 100 0.0 SW 15 17 8 9 1030.4 1030.9 0.0
02/07:00am 4.0 0.2 4.0 100 0.0 SSW 13 13 7 7 1030.3 1030.8 0.0
02/06:30am 4.8 2.3 4.8 100 0.0 SSW 7 11 4 6 1030.2 1030.7 0.0
02/06:00am 4.6 1.3 4.6 100 0.0 SSW 11 13 6 7 1030.1 1030.6 0.0
02/05:30am 4.5 1.2 4.5 100 0.0 SW 11 13 6 7 1029.9 1030.4 0.0
02/05:00am 5.2 1.6 5.2 100 0.0 SW 13 15 7 8 1029.9 1030.4 0.0
02/04:30am 6.0 2.6 6.0 100 0.0 SW 13 15 7 8 1030.1 1030.6 0.0
02/04:00am 5.8 2.4 5.8 100 0.0 SW 13 15 7 8 1030.2 1030.7 0.0
02/03:30am 6.1 2.4 6.1 100 0.0 SSW 15 15 8 8 1030.4 1030.9 0.0
02/03:00am 6.0 2.6 6.0 100 0.0 SSW 13 13 7 7 1030.6 1031.1 0.0
02/02:30am 6.5 3.2 6.5 100 0.0 S 13 17 7 9 1030.7 1031.2 0.0
02/02:00am 5.7 2.3 5.7 100 0.0 S 13 17 7 9 1030.6 1031.1 0.0
02/01:30am 5.4 1.9 5.4 100 0.0 S 13 15 7 8 1030.7 1031.2 0.0
02/01:00am 5.2 1.3 5.2 100 0.0 SSW 15 17 8 9 1030.6 1031.1 0.0
02/12:30am 5.1 0.8 5.1 100 0.0 SSW 17 19 9 10 1030.7 1031.2 0.0
02/12:00am 5.4 0.8 5.4 100 0.0 SSW 19 20 10 11 1030.7 1031.2 0.0
 
Date/Time
EST
Temp
°C
App
Temp
°C
Dew
Point
°C
Rel
Hum
%
Delta-T
°C
Wind Press
QNH
hPa
Press
MSL
hPa
Rain since
9am
mm
Dir  Spd
km/h
Gust
km/h
Spd
kts
Gust
kts
01/11:30pm 5.0 0.6 5.0 100 0.0 SSW 17 20 9 11 1030.8 1031.3 0.0
01/11:00pm 4.8 0.8 4.8 100 0.0 SSW 15 19 8 10 1030.7 1031.2 0.0
01/10:30pm 5.3 1.0 5.3 100 0.0 SSW 17 20 9 11 1030.9 1031.4 0.0
01/10:00pm 5.2 1.3 5.2 100 0.0 SSW 15 17 8 9 1031.0 1031.5 0.0
01/09:30pm 5.2 1.3 5.2 100 0.0 SSW 15 17 8 9 1031.0 1031.5 0.0
01/09:00pm 5.5 1.6 5.5 100 0.0 SSW 15 17 8 9 1031.0 1031.5 0.0
01/08:30pm 5.6 1.8 5.6 100 0.0 SSW 15 17 8 9 1030.9 1031.4 0.0
01/08:00pm 5.8 2.0 5.8 100 0.0 SSW 15 17 8 9 1031.1 1031.6 0.0
01/07:30pm 5.7 1.9 5.7 100 0.0 S 15 17 8 9 1031.0 1031.5 0.0
01/07:00pm 5.8 2.0 5.8 100 0.0 S 15 20 8 11 1030.6 1031.1 0.0
01/06:30pm 6.4 1.8 5.5 94 0.4 S 19 20 10 11 1030.3 1030.8 0.0
01/06:00pm 6.8 2.5 5.4 91 0.6 SSW 17 20 9 11 1030.2 1030.7 0.0
01/05:30pm 7.3 3.8 5.4 88 0.9 SSW 13 15 7 8 1030.1 1030.6 0.0
01/05:00pm 8.2 4.3 5.5 83 1.2 SSW 15 19 8 10 1030.1 1030.6 0.0
01/04:30pm 8.7 4.0 5.3 79 1.6 S 19 22 10 12 1030.0 1030.5 0.0
01/04:00pm 9.1 4.3 5.5 78 1.6 S 20 24 11 13 1029.8 1030.3 0.0
01/03:30pm 9.4 4.6 5.6 77 1.8 SSW 20 26 11 14 1029.9 1030.4 0.0
01/03:00pm 9.7 5.1 5.7 76 1.8 SSW 19 22 10 12 1029.9 1030.4 0.0
01/02:30pm 9.9 5.4 5.9 76 1.9 SSW 19 22 10 12 1029.9 1030.4 0.0
01/02:00pm 10.2 6.0 5.8 74 2.0 S 17 20 9 11 1030.0 1030.5 0.0
01/01:30pm 10.1 4.9 5.3 72 2.2 S 22 30 12 16 1030.0 1030.5 0.0
01/01:00pm 10.3 5.2 5.9 74 2.0 S 22 28 12 15 1030.1 1030.6 0.0
01/12:30pm 10.3 5.3 6.5 77 1.8 S 22 28 12 15 1030.3 1030.8 0.0
01/12:00pm 10.5 5.9 6.5 76 1.9 S 20 26 11 14 1030.6 1031.1 0.0
01/11:30am 9.8 4.7 6.2 78 1.7 S 22 30 12 16 1030.7 1031.2 0.0
01/11:00am 9.8 5.0 7.4 85 1.1 S 22 28 12 15 1030.9 1031.4 0.0
01/10:30am 8.8 4.5 8.0 95 0.4 S 20 24 11 13 1030.8 1031.3 0.0
01/10:00am 8.4 2.9 7.6 95 0.4 SSW 26 30 14 16 1030.6 1031.1 0.0
01/09:30am 7.1 1.9 7.1 100 0.0 SSW 24 28 13 15 1030.4 1030.8 0.0
01/09:00am 6.4 1.0 6.4 100 0.0 SSW 24 28 13 15 1030.3 1030.7 0.2
01/08:30am 6.1 0.6 6.1 100 0.0 SSW 24 28 13 15 1030.2 1030.6 0.2
01/08:00am 6.0 0.9 6.0 100 0.0 SSW 22 26 12 14 1030.2 1030.6 0.2
01/07:30am 5.9 0.8 5.9 100 0.0 SSW 22 26 12 14 1030.0 1030.4 0.2
01/07:00am 5.7 0.9 5.7 100 0.0 SW 20 22 11 12 1029.7 1030.1 0.2
01/06:30am 5.7 1.5 5.7 100 0.0 SW 17 20 9 11 1029.5 1029.9 0.2
01/06:00am 5.2 0.5 5.2 100 0.0 SW 19 20 10 11 1029.2 1029.6 0.2
01/05:30am 5.7 1.9 5.7 100 0.0 WSW 15 17 8 9 1029.0 1029.4 0.0
01/05:00am 6.1 3.1 6.1 100 0.0 WSW 11 13 6 7 1028.9 1029.3 0.0
01/04:30am 5.9 2.5 5.9 100 0.0 WSW 13 15 7 8 1028.8 1029.2 0.0
01/04:00am 5.9 2.9 5.9 100 0.0 WSW 11 13 6 7 1028.9 1029.3 0.0
01/03:30am 6.0 3.0 6.0 100 0.0 WSW 11 13 6 7 1028.9 1029.3 0.0
01/03:00am 5.7 2.6 5.7 100 0.0 SW 11 13 6 7 1028.8 1029.2 0.0
01/02:30am 6.2 3.6 6.2 100 0.0 SW 9 9 5 5 1028.9 1029.3 0.0
01/02:00am 6.0 3.0 6.0 100 0.0 SW 11 13 6 7 1028.8 1029.2 0.0
01/01:30am 6.2 2.9 6.2 100 0.0 SW 13 15 7 8 1028.8 1029.2 0.0
01/01:00am 6.3 2.6 6.3 100 0.0 SW 15 17 8 9 1028.8 1029.2 0.0
01/12:30am 6.4 2.7 6.4 100 0.0 SW 15 19 8 10 1028.8 1029.2 0.0
01/12:00am 6.6 2.2 6.6 100 0.0 SSW 19 24 10 13 1028.8 1029.2 0.0
 
Date/Time
EST
Temp
°C
App
Temp
°C
Dew
Point
°C
Rel
Hum
%
Delta-T
°C
Wind Press
QNH
hPa
Press
MSL
hPa
Rain since
9am
mm
Dir  Spd
km/h
Gust
km/h
Spd
kts
Gust
kts
30/11:30pm 6.4 2.3 6.4 100 0.0 SW 17 17 9 9 1028.7 1029.1 0.0
30/11:00pm 6.6 2.6 6.6 100 0.0 SSW 17 20 9 11 1028.5 1028.9 0.0
30/10:30pm 7.1 2.8 7.1 100 0.0 SSW 19 22 10 12 1028.4 1028.8 0.0
30/10:00pm 7.3 3.8 7.3 100 0.0 SSW 15 17 8 9 1028.2 1028.6 0.0
30/09:30pm 7.2 3.7 7.2 100 0.0 SSW 15 17 8 9 1028.1 1028.4 0.0
30/09:00pm 7.7 5.1 7.7 100 0.0 SW 11 15 6 8 1028.0 1028.3 0.0
30/08:30pm 8.4 5.9 8.4 100 0.0 S 11 15 6 8 1027.6 1028.0 0.0
30/08:00pm 8.7 5.6 8.7 100 0.0 S 15 17 8 9 1027.5 1027.9 0.0
30/07:30pm 8.8 5.3 8.8 100 0.0 SSE 17 20 9 11 1027.2 1027.6 0.0
30/07:00pm 8.8 5.3 8.8 100 0.0 SSE 17 20 9 11 1026.9 1027.3 0.0
30/06:30pm 8.7 5.9 8.7 100 0.0 SSE 13 17 7 9 1026.5 1026.9 0.0
30/06:00pm 8.8 5.3 8.8 100 0.0 S 17 19 9 10 1026.1 1026.5 0.0
30/05:30pm 8.8 6.1 8.8 100 0.0 SSW 13 15 7 8 1025.8 1026.2 0.0
30/05:00pm 9.3 6.7 9.3 100 0.0 S 13 15 7 8 1025.5 1025.9 0.0
30/04:30pm 9.9 7.1 9.9 100 0.0 SSW 15 19 8 10 1025.2 1025.6 0.0
30/04:00pm 10.4 8.1 10.4 100 0.0 SW 13 17 7 9 1025.0 1025.4 0.0
30/03:30pm 10.8 9.4 10.8 100 0.0 SW 9 11 5 6 1025.1 1025.5 0.0
30/03:00pm 10.3 9.1 10.3 100 0.0 WSW 7 9 4 5 1024.9 1025.2 0.0
30/02:30pm 10.1 8.1 10.1 100 0.0 SW 11 13 6 7 1024.7 1025.0 0.0
30/02:00pm 10.6 8.7 10.4 99 0.1 SW 11 15 6 8 1024.7 1025.0 0.0
30/01:30pm 9.7 7.6 9.7 100 0.0 WSW 11 13 6 7 1024.8 1025.1 0.0
30/01:00pm 9.2 7.0 9.2 100 0.0 WSW 11 15 6 8 1024.9 1025.2 0.0
30/12:30pm 9.3 6.3 9.3 100 0.0 SW 15 17 8 9 1025.2 1025.6 0.0
30/12:00pm 9.4 6.8 9.4 100 0.0 SW 13 17 7 9 1025.2 1025.6 0.0
30/11:30am 9.0 6.7 8.9 99 0.0 WSW 11 15 6 8 1025.3 1025.7 0.0
30/11:00am 9.2 7.7 9.2 100 0.0 WSW 7 9 4 5 1025.4 1025.8 0.0
30/10:30am 8.4 6.3 8.4 100 0.0 WSW 9 13 5 7 1025.3 1025.7 0.0
30/10:00am 7.2 4.8 7.2 100 0.0 WNW 9 11 5 6 1024.9 1025.2 0.0
30/09:30am 6.8 4.7 6.8 100 0.0 WSW 7 9 4 5 1024.8 1025.1 0.0
30/09:00am 6.7 4.6 6.7 100 0.0 W 7 9 4 5 1024.3 1024.6 0.0
30/08:30am 6.5 4.4 6.5 100 0.0 W 7 9 4 5 1024.1 1024.4 0.0
30/08:00am 6.3 4.1 6.3 100 0.0 SSW 7 9 4 5 1024.1 1024.4 0.0
30/07:30am 6.0 3.8 6.0 100 0.0 SSW 7 9 4 5 1023.5 1023.9 0.0
30/07:00am 7.1 5.1 7.1 100 0.0 W 7 9 4 5 1023.1 1023.5 0.0
30/06:30am 7.1 5.1 7.1 100 0.0 W 7 9 4 5 1022.8 1023.2 0.0
30/06:00am 5.8 3.7 5.8 100 0.0 WSW 6 7 3 4 1022.4 1022.8 0.0
30/05:30am 6.3 4.3 6.3 100 0.0 NW 6 7 3 4 1022.0 1022.4 0.0
30/05:00am 6.1 4.4 6.1 100 0.0 S 4 6 2 3 1021.5 1021.8 0.0
30/04:30am 6.3 4.1 6.3 100 0.0 WNW 7 9 4 5 1021.3 1021.6 0.0
30/04:00am 6.7 3.1 6.6 99 0.0 WNW 15 17 8 9 1021.3 1021.6 0.0
30/03:30am 6.8 3.5 6.5 98 0.1 WNW 13 17 7 9 1021.3 1021.6 0.0
30/03:00am 6.7 2.7 6.6 99 0.0 WNW 17 19 9 10 1021.2 1021.5 0.0
30/02:30am 6.6 3.0 6.6 100 0.0 WNW 15 19 8 10 1021.4 1021.7 0.0
30/02:00am 6.6 2.9 6.5 99 0.0 NW 15 19 8 10 1021.2 1021.5 0.0
30/01:30am 6.5 3.2 6.5 100 0.0 WNW 13 17 7 9 1021.1 1021.4 0.0
30/01:00am 6.3 3.7 6.3 100 0.0 WNW 9 11 5 6 1021.0 1021.3 0.0
30/12:30am 6.2 3.2 6.2 100 0.0 NW 11 15 6 8 1021.1 1021.4 0.0
30/12:00am 5.9 1.2 5.9 100 0.0 NNW 20 24 11 13 1020.7 1021.0 0.0
 
Date/Time
EST
Temp
°C
App
Temp
°C
Dew
Point
°C
Rel
Hum
%
Delta-T
°C
Wind Press
QNH
hPa
Press
MSL
hPa
Rain since
9am
mm
Dir  Spd
km/h
Gust
km/h
Spd
kts
Gust
kts
29/11:30pm 6.1 1.4 6.0 99 0.0 NNW 20 22 11 12 1020.6 1020.9 0.0
29/11:00pm 6.3 2.0 5.4 94 0.4 NNW 17 20 9 11 1020.7 1021.0 0.0
29/10:30pm 6.5 3.6 4.7 88 0.8 NNW 9 13 5 7 1020.8 1021.1 0.0
29/10:00pm 6.7 3.0 4.5 86 1.0 NNW 13 17 7 9 1020.7 1021.0 0.0
29/09:30pm 6.9 3.6 4.7 86 1.0 N 11 19 6 10 1020.4 1020.7 0.0
29/09:00pm 6.6 3.4 5.1 90 0.7 N 11 13 6 7 1020.5 1020.8 0.0
29/08:30pm 6.7 3.8 4.9 88 0.8 NNW 9 11 5 6 1020.6 1020.9 0.0
29/08:00pm 6.9 3.7 4.9 87 0.9 NNW 11 13 6 7 1020.3 1020.6 0.0
29/07:30pm 6.9 3.0 5.4 90 0.7 NNW 15 15 8 8 1020.2 1020.5 0.0
29/07:00pm 7.0 2.7 5.2 88 0.8 NNW 17 20 9 11 1019.6 1020.0 0.0
29/06:30pm 7.3 2.9 5.0 85 1.0 NNW 17 20 9 11 1019.3 1019.7 0.0
29/06:00pm 7.3 2.3 4.6 83 1.2 NNW 20 24 11 13 1019.2 1019.6 0.0
29/05:30pm 7.7 3.6 4.5 80 1.4 NNW 15 19 8 10 1019.3 1019.7 0.0
29/05:00pm 8.0 3.9 4.6 79 1.5 NNW 15 19 8 10 1019.3 1019.7 0.0
29/04:30pm 8.1 3.3 4.7 79 1.5 NNW 19 24 10 13 1019.1 1019.5 0.0
29/04:00pm 8.3 2.9 4.7 78 1.6 NNW 22 28 12 15 1019.1 1019.5 0.0

Other formats

Comma delimited format used in spreadsheet applications
http://www.bom.gov.au/fwo/IDV60801/IDV60801.95845.axf

JavaScript Object Notation format (JSON) in row-major order
http://www.bom.gov.au/fwo/IDV60801/IDV60801.95845.json

Data quality

Most of these data are generated automatically and are frequently updated. Quality checks on data are not normally performed. It is possible for incorrect values to appear. Refer to information at About Latest Weather Observations and please check the disclaimer before using these data.